Time;durP1;ratioP1;P1;durP2;ratioP2;P2;SDS_P1;SDS_P2;PMS_P1;PMS_P2;Temp;Humidity;BMP_temperature;BMP_pressure;BME280_temperature;BME280_humidity;BME280_pressure;Samples;Min_cycle;Max_cycle;Signal;HPM_P1;HPM_P2
2023/09/28 00:00:53;;;;;;;6.05;3.50;;;;;;;19.03;42.80;94153.41;5087496;28;20047;-81
2023/09/28 00:03:19;;;;;;;5.78;3.45;;;;;;;18.89;42.93;94135.06;5089077;28;20020;-81
2023/09/28 00:05:44;;;;;;;8.13;3.70;;;;;;;18.99;42.71;94153.34;5088956;28;20766;-81
2023/09/28 00:08:09;;;;;;;9.63;4.65;;;;;;;18.87;42.96;94148.88;5089333;28;20039;-80
2023/09/28 00:10:35;;;;;;;11.13;3.47;;;;;;;18.72;43.24;94130.91;5084963;28;20081;-80
2023/09/28 00:13:04;;;;;;;8.43;3.00;;;;;;;18.87;43.26;94153.50;5085189;28;20998;-79
2023/09/28 00:15:29;;;;;;;5.03;3.67;;;;;;;18.70;43.29;94122.41;5089120;28;20876;-81
2023/09/28 00:17:55;;;;;;;9.23;4.10;;;;;;;18.75;43.69;94140.97;5085477;28;20023;-80
2023/09/28 00:20:22;;;;;;;5.20;3.47;;;;;;;18.73;43.80;94135.16;5087427;28;20719;-81
2023/09/28 00:23:06;;;;;;;9.07;3.67;;;;;;;18.79;43.79;94149.09;5085871;28;20036;-81
2023/09/28 00:25:32;;;;;;;11.27;4.82;;;;;;;18.71;43.63;94123.19;5087815;28;20023;-80
2023/09/28 00:28:16;;;;;;;12.10;4.93;;;;;;;18.64;43.95;94123.78;5086992;28;20058;-80
2023/09/28 00:30:42;;;;;;;9.45;4.25;;;;;;;18.71;44.06;94140.13;5086258;28;20087;-80
2023/09/28 00:33:07;;;;;;;5.68;3.80;;;;;;;18.63;44.26;94127.59;5087995;27;20483;-81
2023/09/28 00:35:33;;;;;;;10.27;4.25;;;;;;;18.64;44.07;94128.38;5086895;28;20030;-80
2023/09/28 00:37:59;;;;;;;7.72;4.50;;;;;;;18.71;44.14;94140.13;5086467;28;20119;-80
2023/09/28 00:40:28;;;;;;;7.47;3.55;;;;;;;18.73;44.06;94143.22;5085368;28;20049;-79
2023/09/28 00:42:54;;;;;;;10.20;4.20;;;;;;;18.80;43.85;94135.28;5086228;28;20088;-81
2023/09/28 00:45:22;;;;;;;11.05;3.78;;;;;;;18.87;43.53;94140.03;5088037;28;20134;-80
2023/09/28 00:47:50;;;;;;;6.30;3.85;;;;;;;18.88;43.42;94138.88;5086516;28;20779;-80
2023/09/28 00:50:17;;;;;;;12.35;3.25;;;;;;;18.88;43.42;94136.97;5087007;28;20036;-80
2023/09/28 00:52:46;;;;;;;8.82;3.53;;;;;;;18.89;43.54;94132.38;5084894;28;20089;-81
2023/09/28 00:55:13;;;;;;;8.40;4.10;;;;;;;18.94;43.27;94132.06;5087693;28;20560;-80
2023/09/28 00:57:41;;;;;;;6.85;3.67;;;;;;;18.93;43.41;94132.41;5084190;28;20036;-80
2023/09/28 01:00:18;;;;;;;14.48;4.35;;;;;;;18.82;43.50;94124.91;5086887;28;20024;-80
2023/09/28 01:02:46;;;;;;;10.77;3.45;;;;;;;18.88;43.75;94136.97;5091193;28;20019;-80
2023/09/28 01:07:56;;;;;;;10.48;3.80;;;;;;;18.86;43.89;94128.47;5086066;28;20042;-80
2023/09/28 01:10:24;;;;;;;10.77;4.10;;;;;;;18.83;44.03;94121.09;5088381;28;20028;-80
2023/09/28 01:15:35;;;;;;;6.90;4.18;;;;;;;18.92;44.06;94134.31;5087345;28;20078;-81
2023/09/28 01:18:01;;;;;;;7.95;3.83;;;;;;;18.74;44.06;94107.06;5087699;28;20638;-80
2023/09/28 01:20:36;;;;;;;8.70;3.80;;;;;;;18.82;44.26;94127.63;5087651;28;20031;-78
2023/09/28 01:23:24;;;;;;;9.80;3.38;;;;;;;18.82;43.77;94119.53;5090503;28;20031;-81
2023/09/28 01:25:49;;;;;;;8.30;3.53;;;;;;;18.96;43.73;94137.13;5097550;28;20574;-81
2023/09/28 01:28:34;;;;;;;11.63;3.17;;;;;;;18.98;43.78;94141.00;5091041;28;20166;-80
2023/09/28 01:31:18;;;;;;;10.00;3.97;;;;;;;18.93;43.81;94133.19;5122828;27;20749;-80
2023/09/28 01:33:43;;;;;;;7.28;4.00;;;;;;;18.94;43.88;94139.38;5088286;28;20039;-81
2023/09/28 01:36:09;;;;;;;8.68;3.88;;;;;;;18.94;44.11;94142.84;5089293;28;20028;-80
2023/09/28 01:38:49;;;;;;;7.57;4.40;;;;;;;18.88;43.80;94130.78;5088239;28;20109;-80
2023/09/28 01:41:15;;;;;;;7.22;4.65;;;;;;;18.83;43.49;94137.25;5089834;28;20039;-81
2023/09/28 01:43:40;;;;;;;7.57;3.88;;;;;;;18.77;43.71;94135.22;5086553;28;20040;-80
2023/09/28 01:49:08;;;;;;;7.07;3.67;;;;;;;18.75;43.45;94134.78;5084574;28;20119;-80
2023/09/28 01:54:36;;;;;;;6.93;3.95;;;;;;;18.60;43.94;94135.63;5088706;28;20039;-80
2023/09/28 01:57:02;;;;;;;7.95;3.50;;;;;;;18.45;44.25;94121.88;5084401;27;20036;-80
2023/09/28 01:59:27;;;;;;;10.88;4.68;;;;;;;18.59;43.73;94134.84;5090409;28;21171;-80
2023/09/28 02:02:11;;;;;;;9.48;3.92;;;;;;;18.50;44.27;94134.28;5089087;28;20035;-80
2023/09/28 02:04:37;;;;;;;6.60;4.03;;;;;;;18.38;44.54;94143.28;5085401;28;20522;-80
2023/09/28 02:07:04;;;;;;;7.85;4.40;;;;;;;18.36;44.52;94145.56;5087303;28;20056;-80
2023/09/28 02:09:48;;;;;;;11.73;4.25;;;;;;;18.35;44.48;94144.00;5088104;28;20613;-80
2023/09/28 02:12:13;;;;;;;7.32;4.30;;;;;;;18.22;44.44;94131.03;5095234;28;20028;-80
2023/09/28 02:14:39;;;;;;;9.52;4.00;;;;;;;18.09;44.96;94133.06;5088804;28;20109;-80
2023/09/28 02:17:04;;;;;;;12.45;5.25;;;;;;;18.03;44.71;94127.19;5091001;28;20292;-81
2023/09/28 02:19:29;;;;;;;10.93;4.05;;;;;;;17.94;44.83;94134.66;5090258;28;20132;-80
2023/09/28 02:21:55;;;;;;;8.00;4.70;;;;;;;17.90;45.26;94131.09;5086867;27;20035;-79
2023/09/28 02:24:20;;;;;;;7.85;4.53;;;;;;;17.81;44.92;94135.88;5094120;28;20713;-79
2023/09/28 02:29:30;;;;;;;11.05;4.10;;;;;;;17.84;45.02;94153.25;5089554;28;20051;-79
2023/09/28 02:31:55;;;;;;;9.40;4.68;;;;;;;17.84;45.05;94151.34;5087267;28;20040;-78
2023/09/28 02:37:23;;;;;;;8.10;4.30;;;;;;;17.79;45.17;94157.00;5088795;28;20046;-77
2023/09/28 02:39:48;;;;;;;9.43;4.28;;;;;;;17.70;45.32;94159.06;5118555;27;20028;-79
2023/09/28 02:42:14;;;;;;;12.43;5.05;;;;;;;17.53;45.42;94140.63;5091683;28;20570;-79
2023/09/28 02:44:58;;;;;;;8.35;4.35;;;;;;;17.61;45.71;94164.63;5090540;28;20047;-79
2023/09/28 02:47:24;;;;;;;10.85;4.55;;;;;;;17.42;45.52;94142.25;5083150;28;20151;-78
2023/09/28 02:49:51;;;;;;;9.35;4.45;;;;;;;17.51;45.55;94175.13;5090711;27;20040;-80
2023/09/28 02:55:03;;;;;;;12.23;3.60;;;;;;;17.39;45.44;94161.78;5091554;28;20101;-79
2023/09/28 02:57:28;;;;;;;5.13;3.85;;;;;;;17.35;45.66;94166.31;5090738;28;20036;-79
2023/09/28 02:59:54;;;;;;;7.57;3.70;;;;;;;17.20;45.79;94149.03;5088438;28;20691;-79
2023/09/28 03:02:20;;;;;;;8.43;4.45;;;;;;;17.30;45.49;94161.19;5084574;28;20036;-79
2023/09/28 03:04:45;;;;;;;8.07;4.25;;;;;;;17.30;45.81;94171.94;5086579;28;20043;-78
2023/09/28 03:12:39;;;;;;;8.55;4.47;;;;;;;17.11;45.77;94146.47;5089113;28;20100;-79
2023/09/28 03:15:10;;;;;;;9.07;4.65;;;;;;;17.25;45.98;94166.81;5085112;28;20030;-79
2023/09/28 03:17:56;;;;;;;11.10;4.00;;;;;;;17.25;46.06;94158.75;5089062;28;20092;-80
2023/09/28 03:20:21;;;;;;;6.10;4.03;;;;;;;17.17;46.40;94155.88;5081566;28;20582;-81
2023/09/28 03:22:49;;;;;;;10.80;4.55;;;;;;;17.26;45.71;94157.63;5088350;28;20069;-78
2023/09/28 03:25:17;;;;;;;8.18;3.55;;;;;;;17.29;45.84;94162.31;5085306;27;20706;-81
2023/09/28 03:27:45;;;;;;;9.57;3.15;;;;;;;17.23;45.42;94152.94;5085568;28;20032;-79
2023/09/28 03:30:11;;;;;;;5.70;3.17;;;;;;;17.31;45.08;94158.13;5086503;28;20661;-79
2023/09/28 03:33:00;;;;;;;10.20;2.75;;;;;;;17.36;44.41;94157.09;5086923;28;20537;-79
2023/09/28 03:35:26;;;;;;;7.00;3.30;;;;;;;17.44;43.96;94148.09;5086795;28;20089;-79
2023/09/28 03:38:10;;;;;;;6.53;2.60;;;;;;;17.44;44.16;94158.84;5087855;28;20391;-79
2023/09/28 03:40:54;;;;;;;8.55;2.42;;;;;;;17.47;43.98;94145.47;5103777;27;20044;-79
2023/09/28 03:43:39;;;;;;;8.10;2.60;;;;;;;17.48;43.96;94140.88;5086650;28;20039;-79
2023/09/28 03:46:23;;;;;;;7.37;2.90;;;;;;;17.64;43.63;94160.47;5084811;28;20109;-79
2023/09/28 03:48:50;;;;;;;7.13;3.35;;;;;;;17.63;44.09;94150.06;5084798;28;20276;-79
2023/09/28 03:51:16;;;;;;;10.77;2.55;;;;;;;17.62;43.55;94143.91;5088445;28;20519;-79
2023/09/28 03:54:00;;;;;;;11.05;2.47;;;;;;;17.81;42.98;94162.78;5085424;28;20027;-79
2023/09/28 03:56:28;;;;;;;7.60;2.92;;;;;;;17.74;43.16;94156.47;5084707;28;20629;-78
2023/09/28 03:59:12;;;;;;;8.50;3.47;;;;;;;17.64;43.63;94147.03;5083895;28;20063;-80
2023/09/28 04:01:56;;;;;;;7.18;3.00;;;;;;;17.72;43.84;94170.25;5084314;28;20063;-79
2023/09/28 04:04:40;;;;;;;9.80;2.97;;;;;;;17.60;44.38;94159.59;5086774;28;20610;-80
2023/09/28 04:07:24;;;;;;;7.68;3.72;;;;;;;17.57;44.14;94146.84;5089075;28;20055;-79
2023/09/28 04:09:50;;;;;;;6.30;3.47;;;;;;;17.64;44.06;94165.84;5081861;27;20040;-79
2023/09/28 04:12:16;;;;;;;5.32;2.55;;;;;;;17.50;44.14;94146.69;5085515;28;20452;-79
2023/09/28 04:15:00;;;;;;;9.70;3.80;;;;;;;17.61;44.22;94169.22;5081994;28;20020;-79
2023/09/28 04:17:26;;;;;;;8.73;3.40;;;;;;;17.59;44.06;94161.53;5083972;28;20039;-79
2023/09/28 04:19:54;;;;;;;13.93;4.00;;;;;;;17.43;44.13;94141.13;5082574;28;20058;-78
2023/09/28 04:22:20;;;;;;;6.90;3.00;;;;;;;17.65;44.09;94167.41;5083188;28;20036;-79
2023/09/28 04:25:04;;;;;;;7.35;2.83;;;;;;;17.48;44.51;94154.31;5085634;28;20544;-80
2023/09/28 04:27:49;;;;;;;6.05;2.85;;;;;;;17.52;45.13;94160.56;5085600;28;20071;-79
2023/09/28 04:30:34;;;;;;;7.95;2.40;;;;;;;17.53;44.72;94160.22;5085561;28;20080;-79
2023/09/28 04:33:00;;;;;;;9.45;3.25;;;;;;;17.46;44.19;94156.56;5085674;28;20039;-79
2023/09/28 04:35:44;;;;;;;9.02;3.00;;;;;;;17.52;44.99;94176.69;5085404;28;20051;-79
2023/09/28 04:38:09;;;;;;;13.27;3.72;;;;;;;17.43;44.74;94152.69;5085429;28;20492;-79
2023/09/28 04:40:36;;;;;;;9.32;3.38;;;;;;;17.38;44.88;94150.25;5080884;28;20154;-79
2023/09/28 04:43:03;;;;;;;5.93;2.97;;;;;;;17.54;44.86;94171.75;5086772;28;20551;-79
2023/09/28 04:45:28;;;;;;;10.27;3.00;;;;;;;17.53;45.07;94173.66;5082597;28;20626;-80
2023/09/28 04:47:54;;;;;;;9.73;2.90;;;;;;;17.58;44.96;94180.69;5086167;28;20058;-79
2023/09/28 04:50:23;;;;;;;5.85;2.60;;;;;;;17.58;45.04;94180.69;5088401;28;20028;-79
2023/09/28 04:52:49;;;;;;;9.63;2.95;;;;;;;17.54;44.94;94177.94;5085494;28;20798;-79
2023/09/28 04:55:16;;;;;;;9.90;3.53;;;;;;;17.54;45.16;94179.84;5084795;28;20127;-79
2023/09/28 04:58:00;;;;;;;10.20;3.90;;;;;;;17.47;45.29;94168.88;5082345;28;20642;-79
2023/09/28 05:00:33;;;;;;;6.90;3.13;;;;;;;17.40;45.68;94168.72;5092748;28;20040;-78
2023/09/28 05:03:01;;;;;;;6.20;3.03;;;;;;;17.48;46.10;94186.59;5084012;28;20077;-79
2023/09/28 05:05:27;;;;;;;11.10;3.72;;;;;;;17.59;46.68;94188.41;5115291;27;20042;-80
2023/09/28 05:08:12;;;;;;;11.15;3.80;;;;;;;17.69;45.93;94197.88;5089121;28;20039;-78
2023/09/28 05:10:37;;;;;;;10.43;4.93;;;;;;;17.68;46.66;94201.69;5086145;28;20036;-79
2023/09/28 05:13:03;;;;;;;11.60;4.47;;;;;;;17.55;45.80;94182.16;5084387;28;20330;-79
2023/09/28 05:15:47;;;;;;;11.00;3.92;;;;;;;17.64;46.56;94184.69;5086807;28;20040;-79
2023/09/28 05:18:12;;;;;;;20.88;6.10;;;;;;;17.78;47.39;94198.47;5087852;28;20055;-78
2023/09/28 05:20:39;;;;;;;11.48;5.18;;;;;;;17.79;47.15;94202.72;5084562;28;20110;-79
2023/09/28 05:23:06;;;;;;;13.02;4.85;;;;;;;17.61;47.17;94166.53;5083256;28;20049;-79
2023/09/28 05:25:33;;;;;;;17.17;5.60;;;;;;;17.73;47.56;94187.97;5087107;28;20044;-79
2023/09/28 05:28:01;;;;;;;11.45;4.43;;;;;;;17.81;47.32;94196.97;5086579;28;20055;-78
2023/09/28 05:30:27;;;;;;;12.57;3.63;;;;;;;17.88;47.17;94206.00;5087295;28;20514;-78
2023/09/28 05:32:52;;;;;;;13.43;3.95;;;;;;;17.95;46.46;94208.88;5085499;28;20016;-79
2023/09/28 05:35:18;;;;;;;11.93;3.78;;;;;;;18.02;45.74;94209.06;5087663;28;20079;-79
2023/09/28 05:37:44;;;;;;;8.25;3.10;;;;;;;17.97;45.60;94190.47;5087072;28;20063;-78
2023/09/28 05:40:10;;;;;;;13.38;3.75;;;;;;;18.13;45.07;94216.59;5077359;28;20055;-79
2023/09/28 05:42:36;;;;;;;10.80;3.30;;;;;;;18.06;44.76;94211.03;5072706;28;20036;-79
2023/09/28 05:48:05;;;;;;;14.80;4.07;;;;;;;18.19;44.75;94223.25;5065599;28;20388;-79
2023/09/28 05:50:30;;;;;;;11.20;3.90;;;;;;;18.22;44.64;94222.56;5065025;28;20253;-79
2023/09/28 05:55:58;;;;;;;16.00;4.35;;;;;;;17.98;44.72;94183.19;5061215;28;20052;-79
2023/09/28 06:01:29;;;;;;;10.50;4.38;;;;;;;18.13;44.48;94216.59;5067490;28;20097;-79
2023/09/28 06:03:55;;;;;;;12.27;5.05;;;;;;;18.01;43.68;94206.69;5063001;28;20036;-78
2023/09/28 06:06:22;;;;;;;15.75;4.90;;;;;;;17.86;44.22;94194.81;5066154;28;20123;-79
2023/09/28 06:09:07;;;;;;;10.40;4.40;;;;;;;18.20;44.26;94227.50;5068528;28;20748;-79
2023/09/28 06:11:52;;;;;;;16.57;5.23;;;;;;;18.08;43.79;94192.63;5063388;28;20033;-79
2023/09/28 06:14:29;;;;;;;13.55;4.20;;;;;;;18.36;43.77;94220.16;5069544;28;20526;-79
2023/09/28 06:16:56;;;;;;;20.05;5.13;;;;;;;18.32;44.04;94208.53;5074336;28;20353;-79
2023/09/28 06:19:59;;;;;;;11.90;4.70;;;;;;;18.45;43.81;94223.44;5072871;28;20036;-79
2023/09/28 06:22:43;;;;;;;7.97;3.85;;;;;;;18.40;43.37;94221.03;5075735;28;20065;-79
2023/09/28 06:25:09;;;;;;;15.77;4.40;;;;;;;18.31;43.54;94212.38;5091422;27;21231;-79
2023/09/28 06:27:38;;;;;;;13.82;3.97;;;;;;;18.07;43.74;94188.38;5082813;28;20040;-79
2023/09/28 06:30:04;;;;;;;9.05;4.53;;;;;;;18.44;43.81;94224.56;5086078;28;20031;-79
2023/09/28 06:32:30;;;;;;;11.75;4.90;;;;;;;18.40;43.87;94210.25;5080089;28;20059;-80
2023/09/28 06:34:57;;;;;;;15.07;4.55;;;;;;;18.40;43.85;94208.34;5083598;28;20126;-79
2023/09/28 06:37:23;;;;;;;15.75;5.35;;;;;;;18.51;43.74;94224.72;5087246;28;20036;-79
2023/09/28 06:40:06;;;;;;;10.63;3.92;;;;;;;18.61;43.56;94226.09;5086450;28;20039;-79
2023/09/28 06:42:51;;;;;;;8.95;4.00;;;;;;;18.72;42.92;94230.59;5086526;28;20040;-79
2023/09/28 06:45:35;;;;;;;13.40;3.95;;;;;;;18.41;43.00;94222.59;5086510;28;20027;-79
2023/09/28 06:48:01;;;;;;;13.90;4.13;;;;;;;18.65;42.93;94232.31;5089488;28;20577;-79
2023/09/28 06:50:29;;;;;;;13.05;4.35;;;;;;;18.71;43.29;94239.03;5089297;28;20039;-80
2023/09/28 06:55:38;;;;;;;12.02;4.07;;;;;;;18.71;43.22;94231.72;5087641;27;20043;-79
2023/09/28 06:58:06;;;;;;;11.70;4.03;;;;;;;18.77;42.94;94234.94;5089947;28;20466;-79
2023/09/28 07:00:50;;;;;;;11.75;3.88;;;;;;;18.89;43.31;94243.63;5088245;28;20040;-80
2023/09/28 07:03:16;;;;;;;12.23;3.87;;;;;;;18.75;42.83;94232.56;5088498;28;20028;-79
2023/09/28 07:08:44;;;;;;;13.63;3.95;;;;;;;18.78;43.30;94237.25;5088177;27;20096;-80
2023/09/28 07:11:09;;;;;;;11.38;5.00;;;;;;;18.81;43.15;94233.06;5088638;28;20456;-79
2023/09/28 07:13:36;;;;;;;14.18;5.10;;;;;;;18.89;42.86;94249.03;5092255;28;20127;-80
2023/09/28 07:16:03;;;;;;;9.63;4.00;;;;;;;18.84;42.68;94248.53;5088066;28;20438;-79
2023/09/28 07:18:50;;;;;;;10.40;4.47;;;;;;;18.87;42.73;94228.97;5087088;28;20039;-79
2023/09/28 07:21:16;;;;;;;11.27;3.87;;;;;;;18.87;43.20;94235.13;5088264;28;20023;-79
2023/09/28 07:23:42;;;;;;;19.33;4.25;;;;;;;18.69;42.89;94223.19;5085603;28;20450;-79
2023/09/28 07:28:59;;;;;;;13.68;4.00;;;;;;;18.85;43.14;94237.41;5084601;28;20065;-79
2023/09/28 07:34:27;;;;;;;9.57;4.70;;;;;;;18.87;43.14;94251.28;5084807;27;20062;-79
2023/09/28 07:39:37;;;;;;;9.70;3.75;;;;;;;19.06;42.82;94228.97;5084099;27;20059;-79
2023/09/28 07:42:07;;;;;;;11.48;3.80;;;;;;;19.06;42.84;94247.03;5088441;28;20106;-79
2023/09/28 07:44:51;;;;;;;12.05;3.97;;;;;;;18.73;42.76;94229.44;5087652;28;20518;-79
2023/09/28 07:47:19;;;;;;;13.93;3.77;;;;;;;18.85;42.81;94237.41;5082357;27;20040;-79
2023/09/28 07:49:47;;;;;;;10.85;3.33;;;;;;;18.95;42.63;94246.06;5085041;28;20120;-80
2023/09/28 07:52:13;;;;;;;8.73;3.13;;;;;;;19.10;42.28;94237.88;5090595;28;20084;-79
2023/09/28 07:54:57;;;;;;;10.88;3.13;;;;;;;18.37;43.60;94233.28;5085525;28;20032;-79
2023/09/28 07:57:23;;;;;;;13.52;4.18;;;;;;;18.71;43.07;94215.56;5089687;28;20101;-79
2023/09/28 08:02:50;;;;;;;10.40;3.45;;;;;;;18.48;43.57;94236.19;5085323;28;20049;-80
2023/09/28 08:08:05;;;;;;;18.77;4.60;;;;;;;18.27;43.88;94225.75;5085635;28;20050;-79
2023/09/28 08:10:32;;;;;;;7.80;3.83;;;;;;;18.67;43.57;94222.78;5091467;28;20591;-79
2023/09/28 08:13:16;;;;;;;11.70;3.55;;;;;;;18.72;43.54;94244.06;5081430;28;20146;-80
2023/09/28 08:16:01;;;;;;;14.35;4.13;;;;;;;18.51;44.00;94243.59;5092418;28;20036;-79
2023/09/28 08:18:46;;;;;;;12.32;3.35;;;;;;;18.94;43.61;94245.25;5091212;28;20039;-79
2023/09/28 08:21:12;;;;;;;12.43;3.33;;;;;;;19.06;43.13;94237.03;5083747;28;20032;-80
2023/09/28 08:23:37;;;;;;;17.60;4.15;;;;;;;18.75;43.56;94245.25;5085590;28;20031;-79
2023/09/28 08:26:03;;;;;;;11.43;3.42;;;;;;;18.88;43.75;94225.91;5083912;28;20131;-79
2023/09/28 08:28:29;;;;;;;12.77;3.90;;;;;;;19.17;43.44;94232.63;5086458;28;20184;-80
2023/09/28 08:31:04;;;;;;;10.27;3.53;;;;;;;19.40;42.99;94229.97;5085102;28;20519;-80
2023/09/28 08:33:30;;;;;;;13.07;3.55;;;;;;;19.14;43.44;94224.47;5087107;28;20130;-79
2023/09/28 08:35:55;;;;;;;11.38;2.85;;;;;;;18.78;43.88;94226.47;5086670;28;20432;-79
2023/09/28 08:38:20;;;;;;;9.90;3.05;;;;;;;18.94;44.30;94233.69;5083301;28;20472;-80
2023/09/28 08:40:49;;;;;;;6.45;2.95;;;;;;;19.17;43.70;94226.44;5085820;28;20454;-80
2023/09/28 08:43:18;;;;;;;9.65;3.47;;;;;;;19.36;43.13;94218.31;5087078;28;20131;-79
2023/09/28 08:45:45;;;;;;;11.10;3.90;;;;;;;19.26;43.10;94222.38;5083257;28;20036;-79
2023/09/28 08:48:17;;;;;;;6.65;2.80;;;;;;;19.41;43.52;94226.09;5084886;28;20172;-80
2023/09/28 08:53:48;;;;;;;10.07;3.55;;;;;;;19.55;43.06;94231.03;5064666;28;20047;-79
2023/09/28 08:56:33;;;;;;;9.10;3.35;;;;;;;19.80;42.65;94237.59;5066662;28;20036;-79
2023/09/28 08:58:59;;;;;;;6.95;3.08;;;;;;;19.91;42.38;94235.06;5066829;28;20405;-81
2023/09/28 09:01:28;;;;;;;8.57;3.03;;;;;;;19.93;42.60;94235.50;5065711;28;20036;-79
2023/09/28 09:03:53;;;;;;;7.35;3.03;;;;;;;19.56;43.75;94229.88;5066037;28;20052;-79
2023/09/28 09:06:23;;;;;;;11.10;3.15;;;;;;;19.69;44.15;94229.34;5063929;28;20111;-79
2023/09/28 09:08:49;;;;;;;8.45;3.03;;;;;;;19.92;43.46;94223.13;5066410;28;20170;-79
2023/09/28 09:11:18;;;;;;;8.77;3.55;;;;;;;19.83;42.85;94231.50;5064972;28;20059;-79
2023/09/28 09:14:03;;;;;;;10.73;3.97;;;;;;;19.95;42.64;94222.41;5065576;28;20508;-79
2023/09/28 09:16:30;;;;;;;11.75;3.15;;;;;;;19.92;42.92;94225.84;5063604;28;20056;-78
2023/09/28 09:18:57;;;;;;;4.90;2.58;;;;;;;19.95;42.62;94220.50;5071475;28;20735;-79
2023/09/28 09:21:24;;;;;;;4.82;2.97;;;;;;;19.77;42.43;94218.66;5083379;28;21518;-79
2023/09/28 09:24:03;;;;;;;4.55;3.15;;;;;;;19.58;42.25;94214.88;5089247;28;20411;-79
2023/09/28 09:26:41;;;;;;;4.80;2.55;;;;;;;19.85;41.91;94213.00;5063667;28;20044;-80
2023/09/28 09:29:27;;;;;;;12.40;3.55;;;;;;;19.68;42.00;94214.28;5061436;28;20925;-79
2023/09/28 09:31:53;;;;;;;5.18;2.80;;;;;;;19.69;42.52;94209.69;5062889;28;20498;-79
2023/09/28 09:34:20;;;;;;;6.28;3.05;;;;;;;19.92;42.34;94228.53;5063251;28;20119;-79
2023/09/28 09:37:01;;;;;;;10.10;3.08;;;;;;;19.94;42.25;94210.84;5065145;28;20044;-79
2023/09/28 09:39:34;;;;;;;6.88;3.35;;;;;;;20.21;42.09;94208.97;5065498;28;20923;-79
2023/09/28 09:42:00;;;;;;;8.93;3.35;;;;;;;20.33;42.02;94222.25;5063785;28;20133;-79
2023/09/28 09:44:28;;;;;;;9.07;3.47;;;;;;;20.18;41.54;94198.91;5094721;28;20568;-78
2023/09/28 09:46:55;;;;;;;19.77;3.95;;;;;;;20.42;41.65;94206.56;5086159;28;20035;-77
2023/09/28 09:49:28;;;;;;;9.65;3.33;;;;;;;20.30;41.22;94201.38;5089487;28;20092;-79
2023/09/28 09:51:54;;;;;;;7.18;3.30;;;;;;;20.68;40.54;94210.38;5086522;28;20514;-79
2023/09/28 09:54:20;;;;;;;10.35;3.15;;;;;;;20.71;40.01;94194.19;5088678;27;20036;-80
2023/09/28 09:56:51;;;;;;;9.55;3.30;;;;;;;20.89;39.60;94199.81;5089187;28;20172;-80
2023/09/28 09:59:19;;;;;;;10.38;3.28;;;;;;;20.68;41.06;94210.38;5088702;27;20601;-80
2023/09/28 10:01:48;;;;;;;7.13;3.28;;;;;;;20.54;40.67;94179.31;5086587;28;20442;-81
2023/09/28 10:04:16;;;;;;;6.57;2.88;;;;;;;20.59;41.02;94200.59;5087683;28;20031;-81
2023/09/28 10:06:46;;;;;;;7.55;2.67;;;;;;;20.60;41.09;94191.34;5086335;27;20039;-80
2023/09/28 10:09:13;;;;;;;7.38;3.58;;;;;;;20.69;40.75;94187.59;5092196;27;20122;-80
2023/09/28 10:11:41;;;;;;;5.45;3.63;;;;;;;20.68;40.94;94191.44;5091199;28;20097;-81
2023/09/28 10:19:58;;;;;;;4.30;2.50;;;;;;;20.84;42.69;94170.38;5080405;28;20123;-80
2023/09/28 10:25:30;;;;;;;9.00;3.10;;;;;;;20.78;41.59;94182.66;5083954;28;20042;-80
2023/09/28 10:31:04;;;;;;;11.27;3.63;;;;;;;20.94;40.68;94199.50;5082318;27;20043;-80
2023/09/28 10:33:33;;;;;;;8.93;3.47;;;;;;;21.05;40.72;94165.25;5080692;27;20169;-80
2023/09/28 10:36:14;;;;;;;4.95;3.03;;;;;;;21.40;41.28;94187.25;5085931;27;20055;-81
2023/09/28 10:38:41;;;;;;;7.55;2.83;;;;;;;21.39;41.27;94184.91;5084318;28;20507;-80
2023/09/28 10:41:09;;;;;;;7.38;3.20;;;;;;;21.44;41.52;94177.22;5085685;28;20423;-81
2023/09/28 10:43:44;;;;;;;20.88;4.05;;;;;;;21.42;41.54;94184.94;5085774;27;20609;-81
2023/09/28 10:46:09;;;;;;;7.65;3.13;;;;;;;21.51;42.12;94184.63;5086889;27;20561;-80
2023/09/28 10:48:42;;;;;;;9.75;3.67;;;;;;;21.45;41.84;94184.22;5085410;28;20036;-80
2023/09/28 10:51:12;;;;;;;8.60;3.47;;;;;;;21.45;42.00;94181.50;5085605;27;20055;-81
2023/09/28 10:53:37;;;;;;;11.75;3.30;;;;;;;21.47;41.66;94186.50;5082517;28;20031;-81
2023/09/28 10:58:49;;;;;;;7.63;2.95;;;;;;;21.69;41.39;94177.47;5075020;27;20343;-81
2023/09/28 11:01:15;;;;;;;6.97;2.85;;;;;;;21.60;41.20;94178.94;5078463;28;20090;-79
2023/09/28 11:03:41;;;;;;;9.48;3.53;;;;;;;21.75;40.25;94176.00;5079739;27;20076;-80
2023/09/28 11:08:52;;;;;;;6.60;3.08;;;;;;;21.68;41.46;94164.31;5082779;27;20636;-79
2023/09/28 11:11:18;;;;;;;7.03;2.90;;;;;;;21.76;40.49;94166.69;5079545;27;20187;-80
2023/09/28 11:14:04;;;;;;;10.27;3.20;;;;;;;21.42;41.19;94163.28;5080375;28;20039;-79
2023/09/28 11:16:31;;;;;;;8.75;3.58;;;;;;;21.42;40.80;94140.84;5109762;27;20170;-78
2023/09/28 11:18:57;;;;;;;6.40;3.58;;;;;;;21.36;41.04;94175.59;5081500;28;20072;-79
2023/09/28 11:21:23;;;;;;;8.88;3.42;;;;;;;21.42;40.23;94144.34;5079987;27;20052;-77
2023/09/28 11:23:52;;;;;;;5.88;3.50;;;;;;;21.39;40.83;94164.03;5083339;28;20944;-79
2023/09/28 11:26:22;;;;;;;5.60;3.55;;;;;;;21.66;41.34;94159.25;5097627;27;20040;-78
2023/09/28 11:28:52;;;;;;;6.20;4.50;;;;;;;21.73;40.21;94163.97;5079417;28;20484;-78
2023/09/28 11:31:18;;;;;;;8.82;3.58;;;;;;;21.77;40.00;94172.88;5082248;28;20050;-79
2023/09/28 11:36:48;;;;;;;12.70;3.83;;;;;;;21.97;39.53;94160.66;5080729;27;20163;-79
2023/09/28 11:39:14;;;;;;;12.68;3.85;;;;;;;21.95;40.06;94160.25;5083941;28;20059;-79
2023/09/28 11:42:13;;;;;;;8.38;3.28;;;;;;;22.09;39.48;94162.28;5081084;28;20803;-78
2023/09/28 11:44:43;;;;;;;12.07;3.67;;;;;;;22.06;40.10;94160.31;5063901;28;20137;-79
2023/09/28 11:47:10;;;;;;;8.45;2.83;;;;;;;22.06;39.23;94157.63;5073405;28;20078;-79
2023/09/28 11:49:42;;;;;;;8.35;3.20;;;;;;;21.86;39.72;94165.22;5072661;28;20032;-79
2023/09/28 11:52:08;;;;;;;8.02;3.53;;;;;;;21.77;39.52;94143.88;5077420;27;20042;-77
2023/09/28 11:54:34;;;;;;;15.55;3.97;;;;;;;21.74;39.28;94146.56;5075948;28;20040;-78
2023/09/28 11:57:00;;;;;;;8.52;3.42;;;;;;;21.76;38.80;94168.63;5085175;28;20112;-78
2023/09/28 11:59:26;;;;;;;9.25;3.80;;;;;;;21.74;39.57;94152.00;5082750;28;20119;-78
2023/09/28 12:02:11;;;;;;;8.90;4.07;;;;;;;21.75;39.75;94148.13;5077897;28;20097;-79
2023/09/28 12:04:37;;;;;;;;;;;;;;;21.94;39.90;94168.75;5085999;28;20036;-78
2023/09/28 12:07:03;;;;;;;7.10;3.53;;;;;;;21.80;39.55;94142.38;5083165;28;19923;-79
2023/09/28 12:09:30;;;;;;;11.40;4.10;;;;;;;21.86;39.76;94154.38;5083673;28;20040;-79
2023/09/28 12:11:57;;;;;;;5.05;2.95;;;;;;;21.88;39.64;94165.63;5085882;28;20111;-79
2023/09/28 12:14:23;;;;;;;5.13;2.83;;;;;;;21.83;39.68;94158.63;5083746;27;20039;-78
2023/09/28 12:16:48;;;;;;;7.72;2.83;;;;;;;21.75;39.20;94135.38;5085132;27;20035;-78
2023/09/28 12:19:15;;;;;;;4.43;2.42;;;;;;;21.84;39.55;94133.13;5085866;27;20086;-79
2023/09/28 12:22:03;;;;;;;7.18;3.70;;;;;;;21.83;40.11;94149.72;5085256;28;20043;-79
2023/09/28 12:24:28;;;;;;;9.30;3.17;;;;;;;21.92;39.74;94158.31;5081832;27;20138;-79
2023/09/28 12:26:54;;;;;;;8.32;3.10;;;;;;;21.98;39.42;94162.22;5088846;28;20407;-80
2023/09/28 12:32:03;;;;;;;16.33;3.42;;;;;;;21.55;40.12;94138.69;5085196;28;20054;-79
2023/09/28 12:34:30;;;;;;;5.07;3.00;;;;;;;21.51;40.25;94143.28;5086733;28;20032;-79
2023/09/28 12:36:57;;;;;;;10.77;3.08;;;;;;;21.42;40.36;94140.84;5089981;28;20043;-80
2023/09/28 12:39:24;;;;;;;5.68;3.05;;;;;;;21.58;41.15;94154.94;5084401;27;20142;-78
2023/09/28 12:44:35;;;;;;;10.63;3.40;;;;;;;21.58;40.71;94152.25;5067349;28;20221;-80
2023/09/28 12:47:01;;;;;;;6.97;3.20;;;;;;;21.78;40.69;94158.97;5083325;28;20039;-79
2023/09/28 12:49:26;;;;;;;5.53;3.53;;;;;;;21.70;40.32;94156.59;5083176;28;20032;-79
2023/09/28 12:51:52;;;;;;;7.28;3.30;;;;;;;21.73;40.11;94153.91;5083851;28;20678;-80
2023/09/28 12:54:17;;;;;;;6.35;3.15;;;;;;;21.87;40.25;94161.34;5083736;28;20032;-79
2023/09/28 12:56:45;;;;;;;7.88;3.35;;;;;;;21.88;40.22;94133.91;5087277;28;20030;-79
2023/09/28 12:59:15;;;;;;;14.40;4.65;;;;;;;22.00;40.34;94149.06;5084269;28;20426;-80
2023/09/28 13:01:41;;;;;;;11.48;3.53;;;;;;;22.11;39.86;94149.13;5088715;28;20040;-80
2023/09/28 13:04:06;;;;;;;10.18;3.45;;;;;;;21.94;39.72;94156.00;5083761;28;20036;-77
2023/09/28 13:06:35;;;;;;;9.73;3.22;;;;;;;21.61;40.11;94135.25;5084952;28;20101;-79